createdAt,value
2023-03-30T00:02:53.836Z,9.40
2023-03-30T00:06:59.545Z,9.50
2023-03-30T00:11:11.963Z,9.50
2023-03-30T00:15:21.702Z,9.40
2023-03-30T00:19:27.460Z,9.40
2023-03-30T00:23:33.309Z,9.40
2023-03-30T00:27:40.180Z,9.40
2023-03-30T00:31:45.681Z,9.40
2023-03-30T00:35:58.502Z,9.40
2023-03-30T00:40:13.651Z,9.50
2023-03-30T00:45:00.104Z,9.40
2023-03-30T00:49:10.556Z,9.40
2023-03-30T00:53:22.718Z,9.40
2023-03-30T00:57:28.741Z,9.40
2023-03-30T01:01:39.015Z,9.40
2023-03-30T01:05:46.268Z,9.40
2023-03-30T01:09:53.101Z,9.40
2023-03-30T01:14:06.159Z,9.40
2023-03-30T01:19:07.811Z,9.40
2023-03-30T01:24:18.098Z,9.40
2023-03-30T01:29:00.380Z,9.40
2023-03-30T01:34:00.746Z,9.40
2023-03-30T01:38:42.488Z,9.40
2023-03-30T01:43:06.259Z,9.40
2023-03-30T01:47:41.288Z,9.40
2023-03-30T01:52:37.260Z,9.40
2023-03-30T01:56:55.856Z,9.50
2023-03-30T02:01:03.843Z,9.40
2023-03-30T02:05:11.169Z,9.40
2023-03-30T02:09:23.766Z,9.50
2023-03-30T02:13:32.137Z,9.50
2023-03-30T02:17:38.565Z,9.50
2023-03-30T02:21:47.348Z,9.50
2023-03-30T02:25:53.520Z,9.50
2023-03-30T02:29:59.407Z,9.50
2023-03-30T02:34:30.769Z,9.60
2023-03-30T02:38:48.518Z,9.60
2023-03-30T02:43:09.219Z,9.60
2023-03-30T02:47:35.424Z,9.60
2023-03-30T02:51:54.420Z,9.60
2023-03-30T02:56:30.192Z,9.60
2023-03-30T03:00:51.881Z,9.60
2023-03-30T03:04:57.618Z,9.60
2023-03-30T03:09:04.230Z,9.60
2023-03-30T03:13:11.441Z,9.60
2023-03-30T03:17:22.819Z,9.60
2023-03-30T03:21:28.513Z,9.60
2023-03-30T03:25:33.946Z,9.60
2023-03-30T03:29:44.017Z,9.70
2023-03-30T03:33:50.903Z,9.70
2023-03-30T03:37:56.706Z,9.70
2023-03-30T03:42:02.273Z,9.70
2023-03-30T03:46:08.196Z,9.70
2023-03-30T03:50:13.938Z,9.70
2023-03-30T03:54:20.440Z,9.70
2023-03-30T03:58:26.690Z,9.70
2023-03-30T04:02:34.179Z,9.70
2023-03-30T04:06:43.013Z,9.70
2023-03-30T04:10:48.498Z,9.70
2023-03-30T04:14:54.799Z,9.70
2023-03-30T04:19:00.260Z,9.70
2023-03-30T04:23:05.700Z,9.70
2023-03-30T04:27:14.776Z,9.70
2023-03-30T04:31:22.708Z,9.70
2023-03-30T04:35:31.065Z,9.70
2023-03-30T04:39:36.999Z,9.70
2023-03-30T04:43:44.641Z,9.70
2023-03-30T04:47:50.425Z,9.60
2023-03-30T04:51:56.146Z,9.60
2023-03-30T04:56:01.795Z,9.60
2023-03-30T05:00:09.616Z,9.60
2023-03-30T05:04:17.349Z,9.60
2023-03-30T05:08:23.801Z,9.60
2023-03-30T05:12:30.006Z,9.60
2023-03-30T05:16:37.468Z,9.60
2023-03-30T05:20:43.007Z,9.60
2023-03-30T05:24:48.533Z,9.60
2023-03-30T05:28:55.032Z,9.60
2023-03-30T05:33:00.791Z,9.60
2023-03-30T05:37:06.319Z,9.70
2023-03-30T05:41:12.346Z,9.60
2023-03-30T05:45:19.474Z,9.70
2023-03-30T05:49:25.390Z,9.80
2023-03-30T05:53:32.005Z,9.70
2023-03-30T05:57:39.854Z,9.70
2023-03-30T06:01:46.042Z,9.80
2023-03-30T06:05:53.545Z,9.90
2023-03-30T06:10:01.361Z,9.80
2023-03-30T06:14:07.651Z,10.00
2023-03-30T06:18:13.678Z,9.90
2023-03-30T06:22:19.124Z,10.00
2023-03-30T06:26:25.228Z,10.00
2023-03-30T06:30:32.410Z,10.10
2023-03-30T06:34:37.990Z,10.00
2023-03-30T06:38:46.134Z,10.00
2023-03-30T06:42:54.056Z,10.10
2023-03-30T06:47:00.510Z,10.10
2023-03-30T06:51:06.862Z,10.20
2023-03-30T06:55:12.495Z,10.30
2023-03-30T06:59:19.098Z,10.40
2023-03-30T07:03:24.666Z,10.40
2023-03-30T07:07:33.020Z,10.50
2023-03-30T07:11:38.577Z,10.50
2023-03-30T07:15:45.730Z,10.50
2023-03-30T07:19:51.333Z,10.60
2023-03-30T07:23:57.143Z,10.70
2023-03-30T07:28:07.955Z,10.60
2023-03-30T07:32:13.772Z,10.70
2023-03-30T07:36:20.314Z,10.70
2023-03-30T07:40:27.081Z,10.80
2023-03-30T07:44:32.627Z,10.80
2023-03-30T07:48:40.732Z,10.90
2023-03-30T07:52:46.192Z,11.00
2023-03-30T07:56:54.496Z,11.10
2023-03-30T08:01:03.645Z,11.20
2023-03-30T08:05:09.830Z,11.30
2023-03-30T08:09:18.687Z,11.30
2023-03-30T08:13:24.610Z,11.40
2023-03-30T08:17:31.674Z,11.50
2023-03-30T08:21:39.125Z,11.70
2023-03-30T08:25:47.134Z,11.80
2023-03-30T08:29:54.614Z,12.00
2023-03-30T08:34:00.597Z,12.00
2023-03-30T08:38:06.412Z,12.10
2023-03-30T08:42:59.759Z,12.20
2023-03-30T08:47:24.697Z,12.20
2023-03-30T08:51:33.279Z,12.30
2023-03-30T08:56:18.209Z,12.40
2023-03-30T09:00:34.050Z,12.50
2023-03-30T09:05:19.108Z,12.50
2023-03-30T09:09:30.651Z,12.70
2023-03-30T09:13:38.136Z,12.80
2023-03-30T09:18:23.177Z,13.10
2023-03-30T09:22:41.898Z,13.50
2023-03-30T09:27:11.721Z,13.60
2023-03-30T09:31:45.335Z,13.80
2023-03-30T09:36:46.942Z,14.00
2023-03-30T09:41:11.536Z,14.10
2023-03-30T09:45:30.694Z,14.20
2023-03-30T09:49:40.865Z,14.40
2023-03-30T09:53:48.500Z,14.50
2023-03-30T09:58:19.915Z,14.70
2023-03-30T10:02:31.773Z,14.80
2023-03-30T10:06:49.969Z,15.00
2023-03-30T10:10:58.851Z,15.10
2023-03-30T10:15:05.551Z,15.10
2023-03-30T10:19:19.563Z,15.10
2023-03-30T10:23:34.822Z,15.20
2023-03-30T10:27:45.631Z,15.30
2023-03-30T10:32:15.827Z,15.40
2023-03-30T10:36:24.857Z,15.40
2023-03-30T10:40:43.018Z,15.30
2023-03-30T10:44:53.278Z,15.30
2023-03-30T10:49:28.143Z,15.10
2023-03-30T10:54:05.772Z,15.00
2023-03-30T10:58:32.052Z,15.00
2023-03-30T11:58:47.725Z,15.70
2023-03-30T12:03:32.786Z,15.90
2023-03-30T12:07:54.583Z,15.90
2023-03-30T12:12:32.656Z,15.80
2023-03-30T12:16:45.112Z,15.80
2023-03-30T12:21:10.865Z,15.70
2023-03-30T12:25:37.647Z,15.50
2023-03-30T12:34:08.103Z,14.90
2023-03-30T12:38:22.013Z,14.80
2023-03-30T12:42:34.871Z,14.90
2023-03-30T12:47:12.218Z,15.10
2023-03-30T12:51:56.513Z,15.10
2023-03-30T12:56:32.986Z,14.90
2023-03-30T13:00:54.157Z,14.80
2023-03-30T13:05:00.161Z,14.80
2023-03-30T13:09:08.687Z,14.90
2023-03-30T13:13:49.384Z,14.90
2023-03-30T13:18:09.653Z,14.90
2023-03-30T13:22:15.673Z,14.80
2023-03-30T13:26:34.670Z,14.70
2023-03-30T13:30:41.351Z,14.50
2023-03-30T13:35:19.529Z,14.40
2023-03-30T13:39:47.940Z,14.30
2023-03-30T13:44:58.641Z,14.20
2023-03-30T13:49:39.053Z,14.20
2023-03-30T13:53:54.815Z,14.60
2023-03-30T13:58:05.516Z,14.90
2023-03-30T14:02:19.746Z,14.80
2023-03-30T14:06:28.614Z,14.70
2023-03-30T14:10:34.146Z,14.80
2023-03-30T14:14:48.342Z,14.80
2023-03-30T14:19:27.666Z,14.80
2023-03-30T14:23:46.741Z,14.70
2023-03-30T14:27:52.256Z,14.70
2023-03-30T14:36:17.230Z,14.60
2023-03-30T14:40:24.761Z,14.70
2023-03-30T14:44:30.476Z,14.70
2023-03-30T14:48:40.964Z,14.80
2023-03-30T14:52:47.445Z,14.80
2023-03-30T14:57:00.740Z,14.70
2023-03-30T15:01:13.976Z,14.60
2023-03-30T15:05:23.667Z,14.60
2023-03-30T15:09:38.498Z,14.50
2023-03-30T15:14:02.948Z,14.50
2023-03-30T15:18:18.791Z,14.60
2023-03-30T15:22:37.912Z,14.40
2023-03-30T15:26:49.698Z,14.30
2023-03-30T15:30:55.454Z,14.20
2023-03-30T15:35:37.292Z,14.00
2023-03-30T15:39:49.268Z,13.80
2023-03-30T15:43:56.137Z,13.70
2023-03-30T15:48:02.081Z,13.70
2023-03-30T15:52:17.204Z,13.70
2023-03-30T15:56:40.682Z,14.00
2023-03-30T16:00:46.902Z,14.20
2023-03-30T16:04:52.443Z,14.30
2023-03-30T16:08:57.881Z,14.30
2023-03-30T16:13:03.459Z,14.10
2023-03-30T16:17:13.141Z,14.00
2023-03-30T16:21:18.953Z,13.90
2023-03-30T16:25:41.701Z,13.80
2023-03-30T16:29:51.523Z,13.70
2023-03-30T16:33:57.134Z,13.70
2023-03-30T16:38:02.600Z,13.80
2023-03-30T16:42:08.030Z,13.80
2023-03-30T16:46:16.418Z,13.80
2023-03-30T16:50:56.633Z,13.70
2023-03-30T16:55:02.200Z,13.60
2023-03-30T16:59:23.462Z,13.50
2023-03-30T17:03:29.594Z,13.40
2023-03-30T17:07:36.160Z,13.40
2023-03-30T17:11:41.621Z,13.30
2023-03-30T17:15:47.204Z,13.30
2023-03-30T17:19:53.118Z,13.20
2023-03-30T17:23:58.693Z,13.20
2023-03-30T17:28:05.550Z,13.10
2023-03-30T17:32:12.324Z,13.10
2023-03-30T17:36:22.950Z,13.10
2023-03-30T17:40:31.271Z,13.00
2023-03-30T17:44:37.133Z,13.00
2023-03-30T17:48:42.952Z,12.90
2023-03-30T17:52:49.616Z,12.90
2023-03-30T17:56:55.232Z,12.80
2023-03-30T18:01:03.862Z,12.80
2023-03-30T18:05:10.179Z,12.80
2023-03-30T18:09:19.048Z,12.70
2023-03-30T18:13:26.376Z,12.70
2023-03-30T18:17:31.828Z,12.60
2023-03-30T18:21:37.506Z,12.60
2023-03-30T18:25:43.360Z,12.50
2023-03-30T18:29:48.829Z,12.50
2023-03-30T18:33:54.296Z,12.50
2023-03-30T18:38:00.126Z,12.50
2023-03-30T18:42:05.832Z,12.50
2023-03-30T18:46:13.317Z,12.50
2023-03-30T18:50:35.770Z,12.40
2023-03-30T18:54:41.250Z,12.40
2023-03-30T18:58:46.778Z,12.40
2023-03-30T19:02:53.130Z,12.40
2023-03-30T19:06:59.412Z,12.40
2023-03-30T19:11:04.835Z,12.30
2023-03-30T19:15:30.248Z,12.30
2023-03-30T19:19:35.672Z,12.20
2023-03-30T19:23:41.283Z,12.20
2023-03-30T19:28:01.450Z,12.20
2023-03-30T19:32:09.323Z,12.10
2023-03-30T19:36:14.922Z,12.10
2023-03-30T19:40:21.348Z,12.10
2023-03-30T19:44:26.869Z,12.00
2023-03-30T19:48:32.391Z,12.00
2023-03-30T19:52:38.513Z,12.00
2023-03-30T19:56:44.118Z,11.90
2023-03-30T20:00:50.738Z,11.80
2023-03-30T20:04:56.367Z,11.80
2023-03-30T20:09:04.154Z,11.80
2023-03-30T20:13:09.832Z,11.80
2023-03-30T20:17:15.284Z,11.80
2023-03-30T20:21:23.452Z,11.80
2023-03-30T20:25:29.118Z,11.80
2023-03-30T20:29:34.704Z,11.80
2023-03-30T20:33:41.049Z,11.70
2023-03-30T20:37:46.581Z,11.70
2023-03-30T20:41:57.904Z,11.70
2023-03-30T20:46:03.611Z,11.60
2023-03-30T20:50:10.211Z,11.60
2023-03-30T20:54:15.704Z,11.60
2023-03-30T20:58:22.506Z,11.50
2023-03-30T21:02:29.604Z,11.50
2023-03-30T21:06:36.657Z,11.40
2023-03-30T21:10:42.950Z,11.40
2023-03-30T21:14:48.455Z,11.40
2023-03-30T21:18:54.381Z,11.40
2023-03-30T21:22:59.837Z,11.40
2023-03-30T21:27:05.501Z,11.40
2023-03-30T21:31:17.236Z,11.40
2023-03-30T21:35:22.888Z,11.40
2023-03-30T21:39:29.285Z,11.40
2023-03-30T21:43:42.953Z,11.40
2023-03-30T21:47:48.390Z,11.40
2023-03-30T21:51:53.929Z,11.40
2023-03-30T21:56:00.219Z,11.40
2023-03-30T22:00:09.954Z,11.30
2023-03-30T22:04:15.420Z,11.40
2023-03-30T22:08:20.978Z,11.40
2023-03-30T22:12:26.393Z,11.30
2023-03-30T22:16:33.169Z,11.40
2023-03-30T22:20:39.995Z,11.30
2023-03-30T22:24:45.508Z,11.30
2023-03-30T22:28:51.038Z,11.30
2023-03-30T22:32:56.786Z,11.20
2023-03-30T22:37:02.540Z,11.20
2023-03-30T22:41:08.772Z,11.20
2023-03-30T22:45:16.088Z,11.20
2023-03-30T22:49:21.540Z,11.20
2023-03-30T22:53:26.981Z,11.20
2023-03-30T22:57:32.886Z,11.20
2023-03-30T23:01:39.268Z,11.20
2023-03-30T23:05:51.684Z,11.20
2023-03-30T23:09:58.432Z,11.20
2023-03-30T23:14:06.616Z,11.10
2023-03-30T23:18:12.166Z,11.10
2023-03-30T23:22:17.605Z,11.10
2023-03-30T23:26:23.211Z,11.10
2023-03-30T23:30:28.689Z,11.10
2023-03-30T23:34:34.483Z,11.10
2023-03-30T23:38:40.423Z,11.10
2023-03-30T23:42:46.003Z,11.00
2023-03-30T23:46:51.897Z,11.00
2023-03-30T23:50:58.455Z,11.00
2023-03-30T23:55:04.732Z,11.00
2023-03-30T23:59:10.886Z,11.00
